createdAt,value
2023-05-20T00:01:15.323Z,100033.85
2023-05-20T00:03:42.187Z,100030.25
2023-05-20T00:06:09.143Z,100033.23
2023-05-20T00:08:36.107Z,100033.86
2023-05-20T00:11:02.795Z,100033.48
2023-05-20T00:13:29.567Z,100032.08
2023-05-20T00:15:56.380Z,100035.59
2023-05-20T00:18:23.120Z,100034.38
2023-05-20T00:20:49.843Z,100031.30
2023-05-20T00:23:16.556Z,100033.13
2023-05-20T00:25:43.265Z,100032.80
2023-05-20T00:28:09.988Z,100031.73
2023-05-20T00:30:39.140Z,100030.77
2023-05-20T00:33:06.593Z,100028.02
2023-05-20T00:35:33.695Z,100025.91
2023-05-20T00:38:00.559Z,100028.29
2023-05-20T00:40:27.262Z,100030.14
2023-05-20T00:42:54.718Z,100031.00
2023-05-20T00:45:21.402Z,100034.13
2023-05-20T00:47:48.194Z,100034.02
2023-05-20T00:50:15.065Z,100039.59
2023-05-20T00:52:45.131Z,100043.91
2023-05-20T00:55:11.914Z,100041.61
2023-05-20T00:57:38.924Z,100047.40
2023-05-20T01:00:05.940Z,100047.66
2023-05-20T01:02:32.773Z,100048.88
2023-05-20T01:04:59.632Z,100050.69
2023-05-20T01:07:26.341Z,100052.33
2023-05-20T01:09:54.358Z,100053.38
2023-05-20T01:12:22.768Z,100050.91
2023-05-20T01:14:50.261Z,100047.13
2023-05-20T01:17:17.981Z,100045.70
2023-05-20T01:19:45.132Z,100042.71
2023-05-20T01:22:12.702Z,100039.52
2023-05-20T01:24:43.143Z,100037.97
2023-05-20T01:27:10.645Z,100035.00
2023-05-20T01:29:37.831Z,100034.00
2023-05-20T01:32:06.043Z,100035.63
2023-05-20T01:34:33.058Z,100037.33
2023-05-20T01:36:59.795Z,100036.60
2023-05-20T01:39:26.791Z,100037.19
2023-05-20T01:41:53.759Z,100034.49
2023-05-20T01:44:20.667Z,100040.15
2023-05-20T01:46:50.917Z,100038.36
2023-05-20T01:49:17.711Z,100039.94
2023-05-20T01:51:44.638Z,100040.34
2023-05-20T01:54:11.367Z,100040.42
2023-05-20T01:56:38.150Z,100041.58
2023-05-20T01:59:05.096Z,100041.34
2023-05-20T02:01:31.888Z,100041.39
2023-05-20T02:03:58.661Z,100042.04
2023-05-20T02:06:25.731Z,100046.31
2023-05-20T02:08:54.647Z,100045.10
2023-05-20T02:11:22.000Z,100044.66
2023-05-20T02:13:49.716Z,100043.81
2023-05-20T02:16:16.558Z,100039.92
2023-05-20T02:18:44.210Z,100038.81
2023-05-20T02:21:17.095Z,100039.27
2023-05-20T02:23:43.910Z,100044.26
2023-05-20T02:26:10.701Z,100047.25
2023-05-20T02:28:40.503Z,100045.84
2023-05-20T02:31:07.243Z,100046.16
2023-05-20T02:33:34.220Z,100048.27
2023-05-20T02:36:00.944Z,100047.23
2023-05-20T02:38:27.893Z,100047.59
2023-05-20T02:40:54.704Z,100047.34
2023-05-20T02:43:21.579Z,100050.51
2023-05-20T02:45:48.353Z,100053.84
2023-05-20T02:48:15.080Z,100055.61
2023-05-20T02:50:41.933Z,100057.39
2023-05-20T02:53:08.680Z,100056.69
2023-05-20T02:55:36.103Z,100060.18
2023-05-20T02:58:02.989Z,100059.31
2023-05-20T03:00:31.390Z,100062.66
2023-05-20T03:02:59.057Z,100060.77
2023-05-20T03:05:28.070Z,100068.59
2023-05-20T03:07:56.234Z,100070.30
2023-05-20T03:10:22.991Z,100073.52
2023-05-20T03:12:49.778Z,100073.28
2023-05-20T03:15:16.643Z,100069.06
2023-05-20T03:17:43.392Z,100069.36
2023-05-20T03:20:12.384Z,100072.25
2023-05-20T03:22:40.132Z,100069.02
2023-05-20T03:25:07.081Z,100074.36
2023-05-20T03:27:34.551Z,100071.91
2023-05-20T03:30:01.672Z,100074.63
2023-05-20T03:32:29.231Z,100074.45
2023-05-20T03:34:58.203Z,100073.67
2023-05-20T03:37:25.196Z,100072.71
2023-05-20T03:39:52.069Z,100073.08
2023-05-20T03:42:18.842Z,100074.70
2023-05-20T03:44:45.762Z,100071.35
2023-05-20T03:47:13.376Z,100072.58
2023-05-20T03:49:41.209Z,100075.92
2023-05-20T03:52:07.949Z,100078.05
2023-05-20T03:54:36.216Z,100080.09
2023-05-20T03:57:03.683Z,100077.27
2023-05-20T03:59:30.502Z,100077.98
2023-05-20T04:01:57.375Z,100078.86
2023-05-20T04:04:24.489Z,100074.67
2023-05-20T04:06:51.268Z,100076.52
2023-05-20T04:09:18.894Z,100083.64
2023-05-20T04:11:45.684Z,100083.14
2023-05-20T04:14:12.501Z,100085.34
2023-05-20T04:16:39.918Z,100084.91
2023-05-20T04:19:07.291Z,100088.38
2023-05-20T04:21:34.058Z,100090.16
2023-05-20T04:24:00.838Z,100091.21
2023-05-20T04:26:27.612Z,100090.03
2023-05-20T04:28:55.528Z,100091.39
2023-05-20T04:31:26.958Z,100094.27
2023-05-20T04:33:54.049Z,100093.23
2023-05-20T04:36:20.767Z,100091.90
2023-05-20T04:38:48.218Z,100093.75
2023-05-20T04:41:16.127Z,100092.68
2023-05-20T04:43:44.204Z,100094.44
2023-05-20T04:46:11.139Z,100091.50
2023-05-20T04:48:38.024Z,100089.06
2023-05-20T04:51:05.049Z,100087.16
2023-05-20T04:53:34.095Z,100085.23
2023-05-20T04:56:01.338Z,100083.11
2023-05-20T04:58:29.679Z,100084.67
2023-05-20T05:00:56.804Z,100083.98
2023-05-20T05:03:24.107Z,100083.38
2023-05-20T05:05:51.012Z,100082.33
2023-05-20T05:08:17.802Z,100082.15
2023-05-20T05:10:48.847Z,100080.14
2023-05-20T05:13:15.890Z,100087.08
2023-05-20T05:15:42.676Z,100089.66
2023-05-20T05:18:09.664Z,100085.52
2023-05-20T05:20:36.616Z,100085.23
2023-05-20T05:23:03.414Z,100087.93
2023-05-20T05:25:30.182Z,100088.44
2023-05-20T05:27:58.243Z,100085.77
2023-05-20T05:30:25.187Z,100082.54
2023-05-20T05:32:52.135Z,100081.14
2023-05-20T05:35:19.061Z,100084.42
2023-05-20T05:37:45.836Z,100085.67
2023-05-20T05:40:12.757Z,100079.98
2023-05-20T05:42:39.999Z,100080.58
2023-05-20T05:45:07.452Z,100083.15
2023-05-20T05:47:34.301Z,100083.42
2023-05-20T05:50:01.684Z,100082.50
2023-05-20T05:52:28.820Z,100081.68
2023-05-20T05:54:55.758Z,100084.80
2023-05-20T05:57:22.684Z,100086.70
2023-05-20T05:59:50.662Z,100086.44
2023-05-20T06:02:17.623Z,100091.58
2023-05-20T06:04:44.539Z,100093.44
2023-05-20T06:07:11.460Z,100088.89
2023-05-20T06:09:38.392Z,100092.04
2023-05-20T06:12:05.286Z,100093.61
2023-05-20T06:14:32.636Z,100088.76
2023-05-20T06:16:59.494Z,100087.65
2023-05-20T06:19:26.691Z,100085.89
2023-05-20T06:21:53.503Z,100080.58
2023-05-20T06:24:21.956Z,100079.74
2023-05-20T06:26:51.195Z,100076.55
2023-05-20T06:29:18.072Z,100073.67
2023-05-20T06:31:44.814Z,100070.81
2023-05-20T06:34:11.565Z,100072.58
2023-05-20T06:36:38.286Z,100067.31
2023-05-20T06:39:06.533Z,100064.75
2023-05-20T06:41:34.320Z,100067.70
2023-05-20T06:44:07.835Z,100065.76
2023-05-20T06:46:34.664Z,100066.41
2023-05-20T06:49:05.413Z,100066.86
2023-05-20T06:51:32.184Z,100066.48
2023-05-20T06:54:00.178Z,100062.82
2023-05-20T06:56:26.969Z,100061.61
2023-05-20T06:58:54.945Z,100061.52
2023-05-20T07:01:21.897Z,100057.94
2023-05-20T07:03:48.654Z,100058.02
2023-05-20T07:06:15.629Z,100059.00
2023-05-20T07:08:42.411Z,100058.73
2023-05-20T07:11:09.521Z,100058.63
2023-05-20T07:13:36.313Z,100060.02
2023-05-20T07:16:03.173Z,100061.08
2023-05-20T07:18:30.082Z,100057.91
2023-05-20T07:20:57.711Z,100061.19
2023-05-20T07:23:50.688Z,100060.63
2023-05-20T07:26:17.497Z,100063.79
2023-05-20T07:28:45.646Z,100061.21
2023-05-20T07:31:12.453Z,100062.92
2023-05-20T07:33:43.078Z,100061.11
2023-05-20T07:36:11.256Z,100060.35
2023-05-20T07:38:41.012Z,100063.42
2023-05-20T07:41:08.572Z,100061.20
2023-05-20T07:43:35.382Z,100055.85
2023-05-20T07:46:02.923Z,100054.27
2023-05-20T07:48:29.671Z,100054.67
2023-05-20T07:50:59.186Z,100050.52
2023-05-20T07:53:26.673Z,100049.75
2023-05-20T07:55:54.226Z,100043.16
2023-05-20T07:58:21.710Z,100041.08
2023-05-20T08:00:49.749Z,100041.14
2023-05-20T08:03:17.359Z,100041.01
2023-05-20T08:05:55.709Z,100045.95
2023-05-20T08:08:22.557Z,100040.91
2023-05-20T08:10:54.864Z,100042.56
2023-05-20T08:13:23.797Z,100038.98
2023-05-20T08:15:52.547Z,100036.63
2023-05-20T08:18:19.312Z,100036.10
2023-05-20T08:20:46.759Z,100038.40
2023-05-20T08:23:13.592Z,100030.35
2023-05-20T08:25:40.323Z,100031.02
2023-05-20T08:28:07.609Z,100029.48
2023-05-20T08:30:36.349Z,100030.56
2023-05-20T08:33:03.179Z,100028.49
2023-05-20T08:35:30.204Z,100027.70
2023-05-20T08:37:57.069Z,100028.37
2023-05-20T08:40:24.670Z,100032.77
2023-05-20T08:42:52.949Z,100032.55
2023-05-20T08:45:20.847Z,100031.48
2023-05-20T08:47:48.030Z,100024.23
2023-05-20T08:50:15.149Z,100019.98
2023-05-20T08:52:50.989Z,100021.58
2023-05-20T08:55:22.811Z,100017.95
2023-05-20T08:57:54.578Z,100011.65
2023-05-20T09:00:23.576Z,100008.90
2023-05-20T09:02:51.870Z,100002.98
2023-05-20T09:05:18.820Z,100006.48
2023-05-20T09:07:45.623Z,100003.36
2023-05-20T09:10:12.324Z,100005.42
2023-05-20T09:12:39.123Z,100002.05
2023-05-20T09:15:06.457Z,100009.34
2023-05-20T09:17:37.037Z,100011.60
2023-05-20T09:20:10.893Z,100013.83
2023-05-20T09:22:38.738Z,100011.86
2023-05-20T09:25:06.622Z,100009.32
2023-05-20T09:27:33.831Z,100004.96
2023-05-20T09:30:01.029Z,100009.27
2023-05-20T09:32:29.009Z,100008.33
2023-05-20T09:34:56.068Z,100005.61
2023-05-20T09:37:22.837Z,100003.47
2023-05-20T09:40:10.233Z,100001.67
2023-05-20T09:42:42.327Z,100004.02
2023-05-20T09:45:09.554Z,100000.48
2023-05-20T09:47:38.743Z,100000.11
2023-05-20T09:50:07.766Z,99998.45
2023-05-20T09:52:38.272Z,99991.02
2023-05-20T09:55:10.402Z,99985.80
2023-05-20T09:57:37.406Z,99986.83
2023-05-20T10:00:08.691Z,99982.21
2023-05-20T10:02:42.379Z,99985.36
2023-05-20T10:05:11.169Z,99985.06
2023-05-20T10:07:44.123Z,99980.30
2023-05-20T10:10:10.962Z,99974.67
2023-05-20T10:12:37.660Z,99970.70
2023-05-20T10:15:23.061Z,99965.55
2023-05-20T10:17:55.857Z,99968.13
2023-05-20T10:20:22.688Z,99970.54
2023-05-20T10:22:56.209Z,99973.59
2023-05-20T10:25:29.099Z,99973.77
2023-05-20T10:28:07.899Z,99972.08
2023-05-20T10:30:35.262Z,99964.78
2023-05-20T10:33:05.861Z,99970.19
2023-05-20T10:35:32.877Z,99967.38
2023-05-20T10:38:12.150Z,99964.77
2023-05-20T10:40:39.144Z,99963.28
2023-05-20T10:43:12.758Z,99963.88
2023-05-20T10:45:49.780Z,99964.04
2023-05-20T10:48:29.489Z,99965.13
2023-05-20T10:50:57.246Z,99962.21
2023-05-20T10:53:33.448Z,99959.65
2023-05-20T10:56:00.777Z,99957.80
2023-05-20T10:58:27.633Z,99965.52
2023-05-20T11:00:54.772Z,99964.66
2023-05-20T11:03:22.118Z,99959.35
2023-05-20T11:05:49.100Z,99955.21
2023-05-20T11:08:27.674Z,99953.85
2023-05-20T11:10:56.419Z,99952.07
2023-05-20T11:13:23.141Z,99957.02
2023-05-20T11:15:50.260Z,99959.61
2023-05-20T11:18:18.850Z,99956.34
2023-05-20T11:20:46.562Z,99956.04
2023-05-20T11:23:14.077Z,99957.21
2023-05-20T11:25:40.936Z,99955.52
2023-05-20T11:28:17.797Z,99951.23
2023-05-20T11:30:44.580Z,99952.84
2023-05-20T11:33:14.951Z,99950.31
2023-05-20T11:35:45.912Z,99947.27
2023-05-20T11:38:12.932Z,99950.71
2023-05-20T11:40:50.440Z,99943.73
2023-05-20T11:43:17.691Z,99942.22
2023-05-20T11:45:44.935Z,99942.02
2023-05-20T11:48:15.795Z,99939.13
2023-05-20T11:50:43.293Z,99935.08
2023-05-20T11:53:10.611Z,99933.95
2023-05-20T11:55:47.265Z,99934.89
2023-05-20T11:58:17.834Z,99932.75
2023-05-20T12:03:17.243Z,99933.82
2023-05-20T12:05:44.074Z,99930.94
2023-05-20T12:08:10.861Z,99928.10
2023-05-20T12:10:38.135Z,99930.18
2023-05-20T12:13:08.492Z,99935.16
2023-05-20T12:15:36.286Z,99927.66
2023-05-20T12:18:03.444Z,99926.70
2023-05-20T12:20:31.042Z,99920.73
2023-05-20T12:22:57.856Z,99921.73
2023-05-20T12:25:24.606Z,99920.74
2023-05-20T12:27:51.377Z,99920.16
2023-05-20T12:30:18.509Z,99923.48
2023-05-20T12:32:45.464Z,99920.02
2023-05-20T12:35:12.239Z,99920.61
2023-05-20T12:37:39.346Z,99918.86
2023-05-20T12:40:08.474Z,99918.31
2023-05-20T12:42:41.519Z,99911.69
2023-05-20T12:45:09.017Z,99906.02
2023-05-20T12:47:35.760Z,99907.69
2023-05-20T12:50:02.703Z,99904.13
2023-05-20T12:52:29.425Z,99907.99
2023-05-20T12:54:56.395Z,99901.70
2023-05-20T12:57:23.513Z,99892.11
2023-05-20T12:59:50.370Z,99891.75
2023-05-20T13:02:17.096Z,99887.75
2023-05-20T13:04:43.866Z,99884.67
2023-05-20T13:07:10.703Z,99878.05
2023-05-20T13:09:37.371Z,99877.84
2023-05-20T13:12:04.188Z,99874.66
2023-05-20T13:14:31.919Z,99871.10
2023-05-20T13:16:58.806Z,99878.55
2023-05-20T13:19:26.110Z,99872.55
2023-05-20T13:21:54.709Z,99870.84
2023-05-20T13:24:21.824Z,99865.58
2023-05-20T13:26:48.607Z,99863.98
2023-05-20T13:29:15.475Z,99860.11
2023-05-20T13:31:42.125Z,99859.85
2023-05-20T13:34:08.921Z,99858.23
2023-05-20T13:36:35.776Z,99859.31
2023-05-20T13:39:02.569Z,99855.39
2023-05-20T13:41:30.266Z,99850.59
2023-05-20T13:43:57.136Z,99845.64
2023-05-20T13:46:23.939Z,99846.81
2023-05-20T13:48:50.781Z,99844.92
2023-05-20T13:51:17.596Z,99843.06
2023-05-20T13:53:44.353Z,99837.85
2023-05-20T13:56:11.163Z,99835.86
2023-05-20T13:58:37.912Z,99836.69
2023-05-20T14:01:05.079Z,99833.40
2023-05-20T14:03:33.332Z,99831.77
2023-05-20T14:06:00.731Z,99835.45
2023-05-20T14:08:27.565Z,99840.59
2023-05-20T14:10:55.552Z,99841.15
2023-05-20T14:13:22.636Z,99839.27
2023-05-20T14:15:50.741Z,99837.19
2023-05-20T14:18:17.914Z,99835.20
2023-05-20T14:20:45.477Z,99830.86
2023-05-20T14:23:12.273Z,99829.61
2023-05-20T14:25:39.012Z,99831.23
2023-05-20T14:28:05.897Z,99823.76
2023-05-20T14:30:32.895Z,99823.23
2023-05-20T14:33:00.062Z,99819.33
2023-05-20T14:35:27.164Z,99820.31
2023-05-20T14:37:54.022Z,99821.66
2023-05-20T14:40:21.193Z,99812.92
2023-05-20T14:42:47.923Z,99818.64
2023-05-20T14:45:14.588Z,99819.58
2023-05-20T14:47:41.312Z,99818.13
2023-05-20T14:50:08.245Z,99809.63
2023-05-20T14:52:34.965Z,99805.56
2023-05-20T14:55:01.725Z,99805.42
2023-05-20T14:57:28.480Z,99804.78
2023-05-20T14:59:55.693Z,99804.52
2023-05-20T15:02:22.625Z,99811.05
2023-05-20T15:04:49.504Z,99803.17
2023-05-20T15:07:16.588Z,99800.06
2023-05-20T15:09:43.965Z,99798.55
2023-05-20T15:12:11.266Z,99798.41
2023-05-20T15:14:38.060Z,99794.79
2023-05-20T15:17:05.141Z,99795.02
2023-05-20T15:19:32.613Z,99795.73
2023-05-20T15:21:59.691Z,99788.59
2023-05-20T15:24:26.373Z,99790.48
2023-05-20T15:26:53.460Z,99785.95
2023-05-20T15:29:20.248Z,99786.21
2023-05-20T15:31:47.027Z,99783.60
2023-05-20T15:34:13.866Z,99782.01
2023-05-20T15:36:40.555Z,99778.09
2023-05-20T15:39:07.364Z,99777.46
2023-05-20T15:41:34.240Z,99775.33
2023-05-20T15:44:00.993Z,99772.92
2023-05-20T15:46:27.761Z,99773.71
2023-05-20T15:48:56.373Z,99769.40
2023-05-20T15:51:23.335Z,99769.80
2023-05-20T15:53:50.476Z,99767.73
2023-05-20T15:56:17.394Z,99769.05
2023-05-20T15:58:44.490Z,99774.57
2023-05-20T16:01:11.236Z,99771.95
2023-05-20T16:03:38.133Z,99771.61
2023-05-20T16:06:05.020Z,99773.30
2023-05-20T16:08:31.815Z,99770.79
2023-05-20T16:10:58.565Z,99775.61
2023-05-20T16:13:25.469Z,99776.24
2023-05-20T16:15:52.300Z,99782.14
2023-05-20T16:18:19.201Z,99782.65
2023-05-20T16:20:45.925Z,99785.52
2023-05-20T16:23:12.658Z,99781.71
2023-05-20T16:25:39.462Z,99779.34
2023-05-20T16:28:06.171Z,99779.61
2023-05-20T16:30:33.030Z,99777.35
2023-05-20T16:33:00.149Z,99778.81
2023-05-20T16:35:26.923Z,99777.13
2023-05-20T16:37:53.676Z,99773.33
2023-05-20T16:40:20.617Z,99777.81
2023-05-20T16:42:47.380Z,99777.88
2023-05-20T16:45:14.082Z,99779.67
2023-05-20T16:47:40.942Z,99780.83
2023-05-20T16:50:08.094Z,99782.00
2023-05-20T16:52:35.737Z,99788.56
2023-05-20T16:55:04.624Z,99793.84
2023-05-20T16:57:32.639Z,99790.40
2023-05-20T16:59:59.454Z,99788.10
2023-05-20T17:02:26.588Z,99792.67
2023-05-20T17:04:53.329Z,99794.21
2023-05-20T17:07:20.100Z,99797.64
2023-05-20T17:09:46.872Z,99796.97
2023-05-20T17:12:13.630Z,99798.05
2023-05-20T17:14:40.467Z,99798.39
2023-05-20T17:17:09.426Z,99800.95
2023-05-20T17:19:36.503Z,99797.92
2023-05-20T17:22:03.336Z,99803.94
2023-05-20T17:24:30.038Z,99805.52
2023-05-20T17:26:56.776Z,99805.31
2023-05-20T17:29:23.634Z,99807.48
2023-05-20T17:31:50.465Z,99806.48
2023-05-20T17:34:17.226Z,99801.35
2023-05-20T17:36:43.943Z,99803.67
2023-05-20T17:39:10.732Z,99804.41
2023-05-20T17:41:37.537Z,99808.46
2023-05-20T17:44:04.336Z,99810.37
2023-05-20T17:46:31.186Z,99807.59
2023-05-20T17:48:57.899Z,99808.54
2023-05-20T17:51:24.587Z,99805.23
2023-05-20T17:53:51.873Z,99803.98
2023-05-20T17:56:18.560Z,99806.84
2023-05-20T17:58:45.483Z,99813.09
2023-05-20T18:01:12.428Z,99814.86
2023-05-20T18:03:39.994Z,99815.75
2023-05-20T18:06:06.984Z,99812.30
2023-05-20T18:08:33.962Z,99810.75
2023-05-20T18:11:00.719Z,99812.21
2023-05-20T18:13:27.491Z,99811.23
2023-05-20T18:15:54.318Z,99811.77
2023-05-20T18:18:21.214Z,99816.31
2023-05-20T18:20:47.994Z,99818.73
2023-05-20T18:23:14.799Z,99821.34
2023-05-20T18:25:42.812Z,99820.73
2023-05-20T18:28:10.806Z,99821.48
2023-05-20T18:30:37.785Z,99821.17
2023-05-20T18:33:04.905Z,99819.80
2023-05-20T18:35:31.745Z,99820.17
2023-05-20T18:37:58.514Z,99824.21
2023-05-20T18:40:25.293Z,99828.86
2023-05-20T18:42:52.114Z,99829.87
2023-05-20T18:45:19.007Z,99829.80
2023-05-20T18:47:45.762Z,99829.51
2023-05-20T18:50:12.557Z,99827.46
2023-05-20T18:52:39.301Z,99828.18
2023-05-20T18:55:06.496Z,99828.58
2023-05-20T18:57:33.272Z,99825.38
2023-05-20T19:00:00.108Z,99822.56
2023-05-20T19:02:26.836Z,99823.52
2023-05-20T19:04:53.642Z,99825.57
2023-05-20T19:07:20.606Z,99825.58
2023-05-20T19:09:47.302Z,99827.86
2023-05-20T19:12:13.959Z,99831.80
2023-05-20T19:14:40.959Z,99830.23
2023-05-20T19:17:07.861Z,99828.98
2023-05-20T19:19:34.744Z,99831.26
2023-05-20T19:22:01.560Z,99833.59
2023-05-20T19:24:31.709Z,99836.23
2023-05-20T19:26:58.574Z,99834.27
2023-05-20T19:29:25.378Z,99837.23
2023-05-20T19:31:52.075Z,99843.11
2023-05-20T19:34:18.772Z,99843.85
2023-05-20T19:36:45.613Z,99844.45
2023-05-20T19:39:12.393Z,99847.77
2023-05-20T19:41:39.323Z,99849.04
2023-05-20T19:44:06.612Z,99851.27
2023-05-20T19:46:33.488Z,99854.00
2023-05-20T19:49:00.556Z,99857.11
2023-05-20T19:51:27.323Z,99854.99
2023-05-20T19:53:54.235Z,99853.59
2023-05-20T19:56:23.998Z,99856.58
2023-05-20T19:58:51.576Z,99851.52
2023-05-20T20:01:18.789Z,99853.23
2023-05-20T20:03:46.165Z,99846.60
2023-05-20T20:06:13.027Z,99847.42
2023-05-20T20:08:40.111Z,99849.85
2023-05-20T20:11:06.948Z,99851.46
2023-05-20T20:13:33.932Z,99853.58
2023-05-20T20:16:01.005Z,99856.03
2023-05-20T20:18:27.712Z,99858.58
2023-05-20T20:20:54.471Z,99857.80
2023-05-20T20:23:21.412Z,99865.30
2023-05-20T20:25:51.194Z,99868.97
2023-05-20T20:28:20.272Z,99867.59
2023-05-20T20:30:47.315Z,99867.29
2023-05-20T20:33:14.129Z,99872.29
2023-05-20T20:35:41.313Z,99876.05
2023-05-20T20:38:11.047Z,99873.49
2023-05-20T20:40:39.269Z,99873.51
2023-05-20T20:43:06.967Z,99872.48
2023-05-20T20:45:34.151Z,99869.77
2023-05-20T20:48:01.478Z,99867.27
2023-05-20T20:50:28.458Z,99868.17
2023-05-20T20:52:55.179Z,99866.94
2023-05-20T20:55:23.557Z,99870.90
2023-05-20T20:57:51.165Z,99870.92
2023-05-20T21:00:21.049Z,99864.98
2023-05-20T21:02:48.082Z,99860.33
2023-05-20T21:05:16.800Z,99856.98
2023-05-20T21:07:46.110Z,99860.14
2023-05-20T21:10:13.122Z,99859.45
2023-05-20T21:12:40.081Z,99857.02
2023-05-20T21:15:07.186Z,99860.23
2023-05-20T21:17:33.953Z,99855.13
2023-05-20T21:20:00.721Z,99854.84
2023-05-20T21:22:27.385Z,99855.05
2023-05-20T21:24:54.108Z,99852.52
2023-05-20T21:27:20.993Z,99853.56
2023-05-20T21:29:48.594Z,99857.06
2023-05-20T21:32:15.282Z,99858.02
2023-05-20T21:34:42.039Z,99863.30
2023-05-20T21:37:08.687Z,99860.45
2023-05-20T21:39:35.887Z,99860.60
2023-05-20T21:42:02.620Z,99863.61
2023-05-20T21:44:29.382Z,99860.37
2023-05-20T21:46:56.239Z,99857.89
2023-05-20T21:49:23.115Z,99860.27
2023-05-20T21:51:49.868Z,99862.95
2023-05-20T21:54:16.546Z,99865.85
2023-05-20T21:56:43.253Z,99865.54
2023-05-20T21:59:09.951Z,99863.42
2023-05-20T22:01:36.707Z,99859.21
2023-05-20T22:04:03.988Z,99855.51
2023-05-20T22:06:30.748Z,99855.55
2023-05-20T22:08:57.459Z,99853.83
2023-05-20T22:11:24.320Z,99855.77
2023-05-20T22:13:51.067Z,99855.48
2023-05-20T22:16:18.829Z,99857.77
2023-05-20T22:18:47.803Z,99859.64
2023-05-20T22:21:14.576Z,99858.45
2023-05-20T22:23:41.344Z,99858.88
2023-05-20T22:26:11.026Z,99863.94
2023-05-20T22:28:37.699Z,99867.66
2023-05-20T22:31:04.519Z,99870.58
2023-05-20T22:33:31.926Z,99878.51
2023-05-20T22:35:59.533Z,99873.02
2023-05-20T22:38:27.319Z,99875.62
2023-05-20T22:40:54.187Z,99875.93
2023-05-20T22:43:23.793Z,99875.82
2023-05-20T22:45:50.492Z,99876.10
2023-05-20T22:48:17.321Z,99877.33
2023-05-20T22:50:44.010Z,99873.09
2023-05-20T22:53:11.189Z,99875.45
2023-05-20T22:55:38.840Z,99871.59
2023-05-20T22:58:05.553Z,99875.02
2023-05-20T23:00:32.211Z,99877.23
2023-05-20T23:02:59.084Z,99880.80
2023-05-20T23:05:26.450Z,99881.28
2023-05-20T23:07:53.870Z,99880.43
2023-05-20T23:10:20.832Z,99880.13
2023-05-20T23:12:47.512Z,99885.84
2023-05-20T23:15:14.223Z,99886.64
2023-05-20T23:17:44.296Z,99885.52
2023-05-20T23:20:14.168Z,99885.91
2023-05-20T23:22:41.175Z,99885.08
2023-05-20T23:25:08.174Z,99882.42
2023-05-20T23:27:34.999Z,99887.22
2023-05-20T23:30:02.146Z,99888.09
2023-05-20T23:32:28.891Z,99888.64
2023-05-20T23:34:55.715Z,99889.55
2023-05-20T23:37:22.538Z,99888.83
2023-05-20T23:39:49.248Z,99886.86
2023-05-20T23:42:16.270Z,99886.13
2023-05-20T23:44:43.023Z,99888.11
2023-05-20T23:47:09.758Z,99883.68
2023-05-20T23:49:37.163Z,99883.25
2023-05-20T23:52:04.295Z,99883.31
2023-05-20T23:54:34.154Z,99879.30
2023-05-20T23:57:01.049Z,99880.10
2023-05-20T23:59:28.035Z,99871.26
